Time;durP1;ratioP1;P1;durP2;ratioP2;P2;SDS_P1;SDS_P2;PMS_P1;PMS_P2;Temp;Humidity;BMP_temperature;BMP_pressure;BME280_temperature;BME280_humidity;BME280_pressure;Samples;Min_cycle;Max_cycle;Signal;HPM_P1;HPM_P2
2023/02/26 00:01:02;;;;;;;15.30;5.75;;;1.00;79.80;;;;;;5001765;28;20062;-78
2023/02/26 00:03:28;;;;;;;12.73;5.43;;;1.10;79.90;;;;;;4987665;28;20032;-73
2023/02/26 00:06:00;;;;;;;15.18;6.07;;;1.00;80.00;;;;;;5001066;28;20333;-73
2023/02/26 00:08:26;;;;;;;11.10;5.07;;;1.10;80.00;;;;;;5003271;28;20022;-78
2023/02/26 00:10:53;;;;;;;14.55;5.50;;;1.00;80.00;;;;;;5000249;28;20081;-75
2023/02/26 00:13:20;;;;;;;12.23;6.00;;;1.00;80.20;;;;;;5007232;28;20113;-74
2023/02/26 00:15:49;;;;;;;11.32;5.40;;;1.00;80.40;;;;;;5000068;28;20485;-74
2023/02/26 00:18:16;;;;;;;13.20;5.32;;;1.00;80.40;;;;;;5006581;28;20049;-75
2023/02/26 00:20:42;;;;;;;16.30;5.60;;;1.00;80.30;;;;;;5005568;28;20037;-74
2023/02/26 00:23:14;;;;;;;13.50;5.15;;;1.00;80.40;;;;;;5004596;28;20095;-76
2023/02/26 00:25:41;;;;;;;11.80;5.32;;;1.00;80.50;;;;;;5003231;28;20092;-74
2023/02/26 00:28:08;;;;;;;16.50;5.15;;;1.00;80.60;;;;;;5009465;28;20028;-75
2023/02/26 00:30:34;;;;;;;15.65;5.32;;;1.00;80.50;;;;;;5003829;28;20672;-73
2023/02/26 00:33:00;;;;;;;12.98;5.80;;;0.90;80.50;;;;;;5008388;28;20022;-76
2023/02/26 00:35:27;;;;;;;13.95;5.15;;;0.90;80.50;;;;;;5002212;28;20064;-73
2023/02/26 00:38:11;;;;;;;14.77;5.35;;;0.90;80.60;;;;;;5004264;28;20498;-74
2023/02/26 00:40:43;;;;;;;12.35;4.95;;;0.90;80.80;;;;;;5017239;28;20045;-76
2023/02/26 00:43:14;;;;;;;14.45;4.68;;;0.90;80.90;;;;;;5006756;28;20029;-73
2023/02/26 00:46:15;;;;;;;13.57;4.82;;;0.90;80.90;;;;;;5006375;28;20030;-73
2023/02/26 00:48:52;;;;;;;13.48;5.63;;;0.90;81.20;;;;;;4997629;28;20030;-74
2023/02/26 00:51:52;;;;;;;12.15;4.72;;;0.90;81.10;;;;;;5007232;28;20064;-74
2023/02/26 00:54:27;;;;;;;15.15;5.07;;;0.80;81.10;;;;;;4993189;28;20038;-77
2023/02/26 00:56:54;;;;;;;15.15;5.25;;;0.80;81.20;;;;;;5002108;28;20100;-75
2023/02/26 00:59:20;;;;;;;14.18;4.55;;;0.80;81.10;;;;;;5003405;28;20040;-76
2023/02/26 01:01:47;;;;;;;9.68;4.38;;;0.80;81.10;;;;;;4981970;28;20762;-77
2023/02/26 01:04:15;;;;;;;11.75;4.60;;;0.80;81.30;;;;;;4983962;28;20100;-73
2023/02/26 01:06:45;;;;;;;13.35;4.80;;;0.80;81.30;;;;;;4985384;28;20046;-74
2023/02/26 01:09:32;;;;;;;13.05;4.57;;;0.80;81.50;;;;;;4982695;28;20026;-73
2023/02/26 01:12:02;;;;;;;12.02;4.65;;;0.80;81.50;;;;;;4985788;28;20509;-73
2023/02/26 01:14:30;;;;;;;9.82;4.32;;;0.80;81.40;;;;;;4982291;28;20034;-74
2023/02/26 01:17:11;;;;;;;11.45;5.63;;;0.70;81.30;;;;;;4985686;28;20478;-77
2023/02/26 01:19:40;;;;;;;15.77;4.30;;;0.80;81.60;;;;;;4981329;28;20467;-74
2023/02/26 01:22:18;;;;;;;10.43;4.47;;;0.80;81.60;;;;;;4978521;28;20032;-73
2023/02/26 01:24:48;;;;;;;11.07;3.80;;;0.80;81.50;;;;;;4985649;28;20045;-73
2023/02/26 01:27:14;;;;;;;11.80;4.70;;;0.80;81.60;;;;;;4981797;28;20061;-74
2023/02/26 01:29:40;;;;;;;13.82;4.55;;;0.80;81.50;;;;;;4982603;28;20033;-77
2023/02/26 01:32:17;;;;;;;14.55;4.68;;;0.90;81.40;;;;;;4979588;28;20510;-75
2023/02/26 01:34:48;;;;;;;13.85;3.80;;;0.90;81.30;;;;;;4978326;28;20058;-74
2023/02/26 01:37:49;;;;;;;14.73;5.43;;;0.90;81.20;;;;;;4979269;28;20427;-77
2023/02/26 01:40:39;;;;;;;11.25;3.88;;;1.00;80.90;;;;;;4978482;28;20028;-72
2023/02/26 01:43:23;;;;;;;13.90;4.00;;;1.00;80.70;;;;;;4986036;28;20720;-73
2023/02/26 01:46:17;;;;;;;9.52;4.05;;;1.10;80.70;;;;;;4985018;28;20030;-74
2023/02/26 01:48:57;;;;;;;15.45;4.45;;;1.20;80.50;;;;;;4981572;28;20018;-75
2023/02/26 01:51:52;;;;;;;14.73;5.22;;;1.20;80.30;;;;;;4981315;28;20037;-74
2023/02/26 01:54:21;;;;;;;18.25;6.50;;;1.30;80.20;;;;;;4978874;28;20088;-72
2023/02/26 01:56:51;;;;;;;13.80;5.40;;;1.30;80.00;;;;;;4984319;28;20120;-73
2023/02/26 01:59:23;;;;;;;11.35;4.45;;;1.40;79.80;;;;;;4982066;28;20030;-73
2023/02/26 02:01:52;;;;;;;14.32;3.78;;;1.50;79.70;;;;;;4980674;28;20112;-73
2023/02/26 02:04:19;;;;;;;14.10;4.28;;;1.60;79.70;;;;;;4984431;28;20025;-73
2023/02/26 02:06:45;;;;;;;9.85;3.55;;;1.60;79.60;;;;;;4982206;28;20042;-74
2023/02/26 02:09:12;;;;;;;10.80;2.95;;;1.60;79.30;;;;;;4987197;28;20061;-74
2023/02/26 02:12:09;;;;;;;13.27;3.35;;;1.70;79.20;;;;;;4985790;28;20485;-74
2023/02/26 02:14:53;;;;;;;10.52;3.42;;;1.80;79.20;;;;;;4964515;28;20645;-74
2023/02/26 02:17:35;;;;;;;11.73;3.53;;;1.80;79.10;;;;;;4979899;28;20038;-73
2023/02/26 02:20:21;;;;;;;11.95;3.45;;;1.90;78.90;;;;;;4983555;28;20026;-73
2023/02/26 02:23:16;;;;;;;16.33;3.53;;;1.90;78.60;;;;;;4979885;28;20083;-73
2023/02/26 02:26:09;;;;;;;7.83;3.20;;;2.00;78.40;;;;;;4981423;28;20041;-74
2023/02/26 02:29:15;;;;;;;9.77;3.72;;;2.10;78.40;;;;;;4987560;28;20152;-74
2023/02/26 02:31:48;;;;;;;16.23;3.78;;;2.10;78.30;;;;;;4984458;28;20034;-73
2023/02/26 02:34:17;;;;;;;12.43;3.63;;;2.10;78.20;;;;;;4987289;28;20030;-73
2023/02/26 02:37:04;;;;;;;9.40;3.10;;;2.10;78.10;;;;;;4983859;28;20165;-73
2023/02/26 02:39:46;;;;;;;8.07;2.65;;;2.20;78.20;;;;;;4982181;28;20046;-73
2023/02/26 02:42:15;;;;;;;12.43;4.00;;;2.10;78.40;;;;;;4979834;28;20066;-74
2023/02/26 02:44:48;;;;;;;10.88;3.17;;;2.10;78.40;;;;;;4979912;28;20085;-74
2023/02/26 02:47:16;;;;;;;9.50;3.63;;;2.10;78.50;;;;;;4984150;28;20482;-75
2023/02/26 02:49:50;;;;;;;8.57;3.25;;;2.20;78.50;;;;;;4985100;28;20030;-73
2023/02/26 02:52:27;;;;;;;10.75;3.70;;;2.20;78.60;;;;;;4984969;28;20475;-73
2023/02/26 02:54:56;;;;;;;8.07;3.22;;;2.20;78.60;;;;;;4982366;28;20117;-72
2023/02/26 02:57:34;;;;;;;9.77;3.08;;;2.20;78.50;;;;;;4983947;28;20050;-73
2023/02/26 03:00:05;;;;;;;10.48;3.22;;;2.20;78.60;;;;;;4983125;28;20463;-76
2023/02/26 03:02:49;;;;;;;10.95;3.10;;;2.20;78.70;;;;;;4984311;28;20494;-75
2023/02/26 03:05:15;;;;;;;7.80;2.78;;;2.20;78.60;;;;;;4983283;28;20503;-74
2023/02/26 03:07:59;;;;;;;6.47;2.60;;;2.20;78.60;;;;;;4981316;28;20042;-73
2023/02/26 03:10:25;;;;;;;11.10;3.03;;;2.20;78.70;;;;;;4983410;28;20019;-73
2023/02/26 03:12:51;;;;;;;13.52;3.13;;;2.20;78.50;;;;;;4983757;28;20073;-73
2023/02/26 03:15:33;;;;;;;14.57;3.70;;;2.30;78.40;;;;;;4980646;28;20379;-73
2023/02/26 03:18:37;;;;;;;9.75;2.60;;;2.30;78.40;;;;;;4976439;28;20070;-73
2023/02/26 03:21:47;;;;;;;10.85;2.88;;;2.40;78.40;;;;;;4986438;28;20499;-72
2023/02/26 03:24:20;;;;;;;6.68;2.60;;;2.40;78.30;;;;;;4974701;28;20041;-74
2023/02/26 03:26:53;;;;;;;11.85;2.78;;;2.40;78.20;;;;;;4987474;28;20035;-74
2023/02/26 03:29:53;;;;;;;10.45;2.67;;;2.40;78.10;;;;;;4982509;28;20503;-74
2023/02/26 03:32:35;;;;;;;7.45;2.20;;;2.50;78.10;;;;;;4984969;28;20039;-76
2023/02/26 03:35:08;;;;;;;7.90;2.42;;;2.50;78.10;;;;;;4985205;28;20114;-75
2023/02/26 03:37:46;;;;;;;6.93;3.28;;;2.40;78.20;;;;;;4982892;28;20034;-73
2023/02/26 03:40:22;;;;;;;7.43;2.50;;;2.40;78.10;;;;;;4987975;28;20042;-73
2023/02/26 03:43:07;;;;;;;11.80;2.30;;;2.50;77.70;;;;;;4987356;28;20034;-75
2023/02/26 03:45:34;;;;;;;9.10;2.28;;;2.60;77.10;;;;;;4984835;28;20470;-75
2023/02/26 03:48:04;;;;;;;9.05;2.30;;;2.60;77.10;;;;;;4982451;28;20149;-74
2023/02/26 03:50:38;;;;;;;8.18;2.70;;;2.70;76.80;;;;;;4985333;28;20030;-74
2023/02/26 03:53:08;;;;;;;10.30;2.80;;;2.70;76.70;;;;;;4982097;28;20031;-74
2023/02/26 03:55:52;;;;;;;10.05;3.08;;;2.80;76.50;;;;;;4989941;28;20058;-74
2023/02/26 03:58:18;;;;;;;7.35;2.47;;;2.70;76.70;;;;;;4988529;28;20436;-74
2023/02/26 04:00:49;;;;;;;6.55;2.70;;;2.80;76.60;;;;;;4981849;28;20033;-76
2023/02/26 04:03:36;;;;;;;10.93;2.35;;;2.80;76.70;;;;;;4984140;28;20420;-74
2023/02/26 04:06:03;;;;;;;10.20;2.67;;;2.80;76.90;;;;;;4986886;28;20047;-74
2023/02/26 04:08:29;;;;;;;9.52;2.70;;;2.80;76.40;;;;;;4985892;28;20058;-75
2023/02/26 04:10:59;;;;;;;10.57;2.60;;;2.70;76.50;;;;;;4986120;28;20124;-75
2023/02/26 04:13:25;;;;;;;10.57;2.85;;;2.90;74.30;;;;;;4988075;28;20026;-74
2023/02/26 04:15:51;;;;;;;10.23;2.35;;;2.80;73.70;;;;;;4984470;28;20105;-73
2023/02/26 04:18:17;;;;;;;10.20;2.67;;;2.90;72.80;;;;;;4988632;28;21683;-74
2023/02/26 04:20:42;;;;;;;8.98;2.42;;;2.90;71.80;;;;;;4986545;28;20437;-74
2023/02/26 04:23:08;;;;;;;5.38;1.90;;;3.00;70.60;;;;;;4981654;28;20110;-74
2023/02/26 04:25:34;;;;;;;10.00;2.58;;;2.90;68.80;;;;;;4986865;28;20030;-73
2023/02/26 04:27:59;;;;;;;10.32;2.20;;;2.90;68.90;;;;;;4985247;28;20027;-76
2023/02/26 04:30:25;;;;;;;8.70;2.25;;;3.00;66.80;;;;;;4988848;28;20034;-74
2023/02/26 04:32:51;;;;;;;9.70;2.00;;;2.90;67.30;;;;;;4987034;28;20043;-73
2023/02/26 04:35:16;;;;;;;9.68;2.63;;;2.90;66.70;;;;;;4986260;28;20555;-74
2023/02/26 04:37:42;;;;;;;8.52;2.05;;;2.90;65.80;;;;;;4982436;28;20470;-75
2023/02/26 04:40:08;;;;;;;10.48;2.40;;;2.90;64.90;;;;;;4989118;28;20041;-74
2023/02/26 04:42:34;;;;;;;8.68;2.28;;;2.80;64.50;;;;;;4985531;28;20046;-77
2023/02/26 04:45:00;;;;;;;8.98;2.10;;;2.70;64.60;;;;;;4989452;28;20034;-74
2023/02/26 04:47:25;;;;;;;9.73;2.25;;;2.60;64.60;;;;;;4984886;28;20034;-76
2023/02/26 04:49:51;;;;;;;9.77;2.10;;;2.60;63.80;;;;;;4987273;28;20468;-73
2023/02/26 04:52:17;;;;;;;6.55;2.00;;;2.70;63.40;;;;;;4984486;28;20042;-74
2023/02/26 04:54:42;;;;;;;10.60;2.35;;;2.70;62.80;;;;;;4986731;28;20100;-78
2023/02/26 04:57:08;;;;;;;9.60;1.95;;;2.70;62.40;;;;;;4983343;28;20395;-74
2023/02/26 04:59:34;;;;;;;5.57;1.80;;;2.60;62.40;;;;;;4986651;28;20033;-76
2023/02/26 05:01:59;;;;;;;6.88;2.20;;;2.60;62.40;;;;;;4980096;28;20483;-74
2023/02/26 05:04:25;;;;;;;8.75;2.05;;;2.60;62.70;;;;;;4987941;28;20030;-73
2023/02/26 05:06:51;;;;;;;8.40;1.88;;;2.50;63.00;;;;;;4983264;28;20049;-76
2023/02/26 05:09:16;;;;;;;12.38;2.28;;;2.50;63.70;;;;;;4986882;28;20465;-73
2023/02/26 05:11:42;;;;;;;5.65;1.95;;;2.40;64.10;;;;;;4981372;28;20030;-73
2023/02/26 05:14:08;;;;;;;8.65;2.60;;;2.30;64.10;;;;;;4985397;28;20034;-73
2023/02/26 05:16:33;;;;;;;9.75;2.90;;;2.20;64.50;;;;;;4986131;28;20049;-74
2023/02/26 05:18:59;;;;;;;9.90;3.85;;;2.10;65.00;;;;;;4986668;28;20052;-74
2023/02/26 05:21:25;;;;;;;11.55;3.08;;;2.10;65.70;;;;;;4979190;28;20184;-75
2023/02/26 05:23:50;;;;;;;10.55;3.50;;;2.10;65.40;;;;;;4985978;28;20489;-73
2023/02/26 05:26:16;;;;;;;8.07;2.50;;;2.10;66.00;;;;;;4983944;28;20046;-72
2023/02/26 05:28:44;;;;;;;9.43;2.40;;;2.10;66.30;;;;;;4986272;28;20031;-73
2023/02/26 05:31:10;;;;;;;7.32;2.17;;;2.10;66.30;;;;;;4983511;28;20084;-73
2023/02/26 05:33:36;;;;;;;8.77;2.35;;;2.10;66.40;;;;;;4985279;28;20069;-75
2023/02/26 05:36:02;;;;;;;10.00;2.20;;;2.00;66.60;;;;;;4985546;28;20042;-76
2023/02/26 05:38:27;;;;;;;9.57;2.20;;;2.00;66.50;;;;;;4986720;28;20026;-73
2023/02/26 05:40:57;;;;;;;9.15;2.22;;;2.00;66.80;;;;;;4986314;28;20371;-74
2023/02/26 05:43:23;;;;;;;9.60;2.15;;;2.00;67.20;;;;;;4985880;28;20096;-76
2023/02/26 05:45:50;;;;;;;7.20;1.90;;;1.90;67.60;;;;;;4983276;28;20034;-75
2023/02/26 05:48:15;;;;;;;6.68;1.85;;;1.90;67.80;;;;;;4986719;28;20030;-73
2023/02/26 05:50:41;;;;;;;9.50;2.17;;;1.90;67.50;;;;;;4980639;28;20030;-75
2023/02/26 05:53:07;;;;;;;8.57;2.25;;;1.90;67.30;;;;;;4988325;28;20038;-74
2023/02/26 05:55:33;;;;;;;7.68;1.92;;;1.90;66.90;;;;;;4982856;28;20043;-76
2023/02/26 05:57:59;;;;;;;7.55;2.28;;;1.90;66.70;;;;;;4986806;28;20022;-74
2023/02/26 06:00:25;;;;;;;10.57;2.00;;;1.80;66.40;;;;;;4985887;28;20034;-76
2023/02/26 06:02:50;;;;;;;7.47;2.13;;;1.90;66.30;;;;;;4986521;28;20092;-73
2023/02/26 06:05:16;;;;;;;9.32;2.45;;;1.90;66.20;;;;;;4985791;28;20114;-73
2023/02/26 06:07:42;;;;;;;7.85;1.98;;;1.80;65.90;;;;;;4984699;28;20113;-74
2023/02/26 06:10:09;;;;;;;6.25;1.88;;;1.80;66.10;;;;;;4986486;28;20101;-76
2023/02/26 06:12:35;;;;;;;7.35;2.28;;;1.80;65.90;;;;;;4986009;28;20145;-75
2023/02/26 06:15:01;;;;;;;6.50;1.88;;;1.80;66.00;;;;;;4987193;28;20038;-77
2023/02/26 06:17:26;;;;;;;8.15;2.20;;;1.70;66.20;;;;;;4983148;28;20577;-73
2023/02/26 06:19:52;;;;;;;11.82;2.08;;;1.70;65.90;;;;;;4984482;28;20030;-74
2023/02/26 06:22:18;;;;;;;6.93;2.08;;;1.70;66.00;;;;;;4987133;28;20475;-74
2023/02/26 06:24:43;;;;;;;7.85;2.65;;;1.60;66.00;;;;;;4985013;28;20475;-73
2023/02/26 06:27:09;;;;;;;8.18;1.95;;;1.60;66.10;;;;;;4981792;28;20767;-78
2023/02/26 06:29:36;;;;;;;5.70;1.80;;;1.60;66.30;;;;;;4983008;28;20040;-78
2023/02/26 06:32:02;;;;;;;9.88;2.50;;;1.60;66.30;;;;;;4985124;28;20746;-75
2023/02/26 06:34:28;;;;;;;7.80;2.13;;;1.60;66.40;;;;;;4983202;28;20426;-75
2023/02/26 06:36:54;;;;;;;8.90;3.08;;;1.60;66.60;;;;;;4985655;28;20042;-73
2023/02/26 06:39:19;;;;;;;6.82;2.30;;;1.50;66.70;;;;;;4984481;28;20454;-74
2023/02/26 06:41:45;;;;;;;7.60;2.53;;;1.50;66.10;;;;;;4986017;28;20030;-75
2023/02/26 06:44:11;;;;;;;9.15;3.25;;;1.60;65.20;;;;;;4986658;28;20356;-75
2023/02/26 06:46:36;;;;;;;10.95;3.78;;;1.60;65.00;;;;;;4985830;28;20487;-73
2023/02/26 06:49:02;;;;;;;8.75;3.22;;;1.70;63.80;;;;;;4984286;28;20041;-74
2023/02/26 06:51:29;;;;;;;9.52;3.25;;;1.60;63.90;;;;;;4986885;28;20038;-76
2023/02/26 06:53:55;;;;;;;9.48;3.67;;;1.60;63.50;;;;;;4984609;28;20030;-74
2023/02/26 06:56:22;;;;;;;9.23;2.70;;;1.70;63.20;;;;;;4982116;28;20054;-74
2023/02/26 06:58:48;;;;;;;8.82;2.78;;;1.60;63.00;;;;;;4983876;28;20023;-73
2023/02/26 07:01:14;;;;;;;8.50;3.08;;;1.70;63.30;;;;;;4984169;28;20039;-77
2023/02/26 07:03:40;;;;;;;6.10;2.25;;;1.70;62.20;;;;;;4982671;28;20031;-75
2023/02/26 07:06:07;;;;;;;9.02;3.22;;;1.70;62.70;;;;;;4987777;28;20395;-73
2023/02/26 07:08:33;;;;;;;10.32;2.80;;;1.70;62.70;;;;;;4985571;28;20495;-74
2023/02/26 07:10:59;;;;;;;10.00;3.97;;;1.60;62.70;;;;;;4980815;28;20042;-72
2023/02/26 07:13:25;;;;;;;8.73;3.45;;;1.60;62.80;;;;;;4983820;28;20375;-73
2023/02/26 07:15:50;;;;;;;8.85;3.40;;;1.70;63.30;;;;;;4985468;28;20570;-74
2023/02/26 07:18:16;;;;;;;11.10;3.38;;;1.60;63.60;;;;;;4982947;28;20025;-77
2023/02/26 07:20:42;;;;;;;6.95;2.53;;;1.60;64.10;;;;;;4985049;28;20030;-76
2023/02/26 07:23:08;;;;;;;11.30;3.38;;;1.60;64.60;;;;;;4981686;28;20037;-74
2023/02/26 07:25:34;;;;;;;8.93;2.80;;;1.60;64.80;;;;;;4980392;28;20030;-76
2023/02/26 07:27:59;;;;;;;10.40;3.38;;;1.60;64.70;;;;;;4985458;28;20657;-74
2023/02/26 07:30:25;;;;;;;10.88;3.33;;;1.60;64.50;;;;;;4982501;28;20042;-73
2023/02/26 07:32:51;;;;;;;11.48;3.20;;;1.70;64.00;;;;;;4983980;28;20116;-73
2023/02/26 07:35:17;;;;;;;6.38;3.30;;;1.70;63.40;;;;;;4985858;28;20342;-72
2023/02/26 07:37:42;;;;;;;8.65;3.03;;;1.80;63.30;;;;;;4982567;28;20038;-73
2023/02/26 07:40:09;;;;;;;12.57;3.03;;;1.80;63.00;;;;;;4986572;28;20475;-74
2023/02/26 07:42:35;;;;;;;8.90;2.53;;;1.80;62.80;;;;;;4980002;28;20027;-77
2023/02/26 07:45:01;;;;;;;6.40;2.35;;;1.90;62.20;;;;;;4983635;28;20040;-77
2023/02/26 07:47:29;;;;;;;10.85;3.10;;;1.90;62.60;;;;;;4984492;28;20022;-75
2023/02/26 07:49:55;;;;;;;7.82;3.03;;;2.00;62.30;;;;;;4986530;28;20022;-75
2023/02/26 07:52:20;;;;;;;7.97;3.08;;;2.00;62.10;;;;;;4981095;28;20045;-77
2023/02/26 07:54:46;;;;;;;8.50;3.20;;;2.00;62.00;;;;;;4976509;28;20074;-73
2023/02/26 07:57:12;;;;;;;8.77;2.55;;;2.10;61.70;;;;;;4982910;28;20072;-74
2023/02/26 07:59:38;;;;;;;9.77;3.08;;;2.10;61.30;;;;;;4984596;28;20049;-75
2023/02/26 08:02:05;;;;;;;9.00;2.75;;;2.10;61.20;;;;;;4982061;28;20563;-77
2023/02/26 08:04:31;;;;;;;13.30;3.50;;;2.10;60.80;;;;;;4989527;28;20032;-73
2023/02/26 08:06:59;;;;;;;6.50;2.28;;;2.20;61.10;;;;;;4984860;28;20026;-74
2023/02/26 08:09:25;;;;;;;10.60;2.45;;;2.30;60.60;;;;;;4983064;28;20031;-73
2023/02/26 08:11:51;;;;;;;6.13;2.05;;;2.30;59.70;;;;;;4977260;28;20035;-75
2023/02/26 08:14:17;;;;;;;7.38;2.15;;;2.30;59.70;;;;;;4984031;28;20030;-74
2023/02/26 08:16:42;;;;;;;8.55;2.72;;;2.40;58.90;;;;;;4979166;28;20821;-75
2023/02/26 08:19:08;;;;;;;9.60;2.30;;;2.40;59.10;;;;;;4986672;28;20027;-74
2023/02/26 08:21:34;;;;;;;7.88;2.13;;;2.40;58.00;;;;;;4980816;28;20043;-74
2023/02/26 08:24:00;;;;;;;10.30;2.30;;;2.60;58.30;;;;;;4985073;28;20102;-74
2023/02/26 08:26:26;;;;;;;6.47;2.13;;;2.60;57.90;;;;;;4984572;28;20046;-77
2023/02/26 08:28:52;;;;;;;7.85;2.03;;;2.60;58.30;;;;;;4985953;28;20434;-73
2023/02/26 08:31:17;;;;;;;8.38;2.55;;;2.60;57.50;;;;;;4985743;28;20453;-74
2023/02/26 08:33:43;;;;;;;7.03;2.28;;;2.70;57.60;;;;;;4979467;28;20019;-74
2023/02/26 08:36:09;;;;;;;7.60;3.83;;;2.80;57.60;;;;;;4984585;28;20046;-75
2023/02/26 08:38:35;;;;;;;5.10;1.90;;;2.80;56.50;;;;;;4985942;28;20049;-74
2023/02/26 08:41:01;;;;;;;7.22;2.45;;;2.90;56.80;;;;;;4985595;28;20688;-74
2023/02/26 08:43:26;;;;;;;6.75;1.90;;;3.00;56.80;;;;;;4987873;28;20240;-73
2023/02/26 08:45:54;;;;;;;8.32;2.05;;;3.00;56.10;;;;;;4985338;28;20042;-74
2023/02/26 08:48:20;;;;;;;5.65;2.30;;;3.00;55.90;;;;;;4980644;28;20025;-75
2023/02/26 08:50:46;;;;;;;7.40;2.30;;;3.10;55.90;;;;;;4980970;28;20022;-75
2023/02/26 08:53:12;;;;;;;5.30;1.70;;;3.10;55.40;;;;;;4987513;28;20030;-73
2023/02/26 08:55:37;;;;;;;7.85;2.08;;;3.10;54.20;;;;;;4986432;28;20050;-78
2023/02/26 08:58:03;;;;;;;5.55;1.98;;;3.20;53.10;;;;;;4989254;28;20135;-77
2023/02/26 09:00:29;;;;;;;6.68;1.75;;;3.30;53.40;;;;;;4983499;28;20088;-73
2023/02/26 09:02:55;;;;;;;5.13;1.80;;;3.30;52.70;;;;;;4981407;28;20042;-75
2023/02/26 09:05:21;;;;;;;4.22;1.67;;;3.40;51.70;;;;;;4979111;28;20732;-75
2023/02/26 09:07:46;;;;;;;5.45;1.70;;;3.50;52.30;;;;;;4979597;28;20049;-76
2023/02/26 09:10:13;;;;;;;5.95;1.80;;;3.40;52.50;;;;;;4980860;28;20460;-75
2023/02/26 09:12:38;;;;;;;5.43;1.90;;;3.60;50.80;;;;;;4982643;28;20039;-75
2023/02/26 09:15:06;;;;;;;6.00;1.80;;;3.60;50.20;;;;;;4984945;28;20034;-75
2023/02/26 09:17:32;;;;;;;5.13;1.63;;;3.80;49.50;;;;;;4982789;28;20046;-75
2023/02/26 09:19:58;;;;;;;6.22;1.75;;;3.70;48.10;;;;;;4980836;28;20096;-74
2023/02/26 09:22:24;;;;;;;5.13;1.83;;;3.70;48.70;;;;;;4983488;28;20038;-74
2023/02/26 09:24:50;;;;;;;4.63;1.70;;;4.00;49.00;;;;;;4979807;28;21178;-75
2023/02/26 09:27:16;;;;;;;4.43;1.75;;;4.10;46.70;;;;;;4979133;28;20133;-74
2023/02/26 09:29:41;;;;;;;4.35;1.63;;;3.90;44.90;;;;;;4980397;28;20784;-75
2023/02/26 09:32:07;;;;;;;7.32;1.88;;;3.90;46.90;;;;;;4979061;28;20050;-74
2023/02/26 09:34:37;;;;;;;4.03;1.70;;;4.10;47.00;;;;;;4978121;28;20487;-73
2023/02/26 09:37:08;;;;;;;5.80;2.15;;;4.10;47.40;;;;;;4985501;28;20053;-74
2023/02/26 09:39:34;;;;;;;5.93;1.88;;;4.30;48.30;;;;;;4982642;28;20217;-74
2023/02/26 09:42:22;;;;;;;5.53;1.90;;;4.40;47.00;;;;;;5001601;28;20030;-74
2023/02/26 09:44:50;;;;;;;7.00;1.70;;;4.40;47.30;;;;;;5003392;28;20037;-75
2023/02/26 09:47:40;;;;;;;6.78;1.83;;;4.20;47.20;;;;;;5000548;28;20037;-75
2023/02/26 09:50:23;;;;;;;4.47;2.13;;;4.30;48.30;;;;;;5002775;28;20421;-74
2023/02/26 09:53:08;;;;;;;6.43;1.98;;;4.30;45.80;;;;;;5001735;28;20414;-74
2023/02/26 09:55:38;;;;;;;4.50;1.60;;;4.30;47.00;;;;;;4993085;28;20053;-86
2023/02/26 09:58:20;;;;;;;6.63;1.90;;;4.50;47.30;;;;;;5021090;28;20699;-84
2023/02/26 10:01:21;;;;;;;4.65;2.00;;;4.80;46.70;;;;;;5002486;28;20363;-83
2023/02/26 10:04:11;;;;;;;6.13;1.70;;;5.00;46.40;;;;;;5002064;28;20084;-83
2023/02/26 10:07:04;;;;;;;4.63;1.90;;;5.30;45.90;;;;;;4981360;28;20565;-81
2023/02/26 10:10:05;;;;;;;1.80;1.50;;;5.20;46.40;;;;;;4981934;28;20058;-84
2023/02/26 10:12:35;;;;;;;5.28;1.77;;;5.00;44.90;;;;;;4983854;28;20037;-81
2023/02/26 10:15:04;;;;;;;3.28;1.90;;;5.20;46.00;;;;;;4985975;28;20042;-84
2023/02/26 10:18:04;;;;;;;4.85;1.80;;;4.90;43.70;;;;;;4984215;28;20081;-83
2023/02/26 10:20:34;;;;;;;5.55;1.90;;;4.50;43.20;;;;;;4984532;28;20050;-78
2023/02/26 10:23:22;;;;;;;5.35;1.92;;;4.40;44.60;;;;;;4984661;28;20030;-83
2023/02/26 10:26:12;;;;;;;5.95;2.10;;;4.60;45.50;;;;;;4980941;28;20539;-82
2023/02/26 10:29:01;;;;;;;5.50;1.67;;;4.60;45.10;;;;;;4983326;28;20033;-80
2023/02/26 10:32:00;;;;;;;7.90;2.30;;;4.90;44.80;;;;;;4979507;28;20042;-83
2023/02/26 10:34:51;;;;;;;4.47;1.65;;;4.60;45.20;;;;;;4982399;28;20074;-82
2023/02/26 10:37:23;;;;;;;4.40;1.92;;;4.70;46.80;;;;;;4981384;28;20042;-84
2023/02/26 10:40:23;;;;;;;6.57;2.00;;;4.70;47.20;;;;;;4985478;28;20030;-83
2023/02/26 10:42:59;;;;;;;5.50;1.98;;;5.10;47.60;;;;;;4988209;28;20041;-86
2023/02/26 10:45:24;;;;;;;7.72;2.28;;;5.10;46.70;;;;;;4985440;28;20042;-78
2023/02/26 10:48:25;;;;;;;5.28;2.10;;;5.00;46.30;;;;;;4983944;28;20489;-80
2023/02/26 10:50:53;;;;;;;6.25;1.98;;;5.00;47.30;;;;;;4985333;28;20045;-87
2023/02/26 10:53:40;;;;;;;5.28;1.90;;;5.00;46.90;;;;;;4985286;28;20086;-81
2023/02/26 10:56:13;;;;;;;5.45;1.58;;;5.10;46.50;;;;;;4979130;28;20046;-82
2023/02/26 10:58:39;;;;;;;4.70;1.73;;;5.40;47.20;;;;;;4979705;28;20019;-79
2023/02/26 11:01:17;;;;;;;3.67;1.67;;;5.40;45.60;;;;;;4980857;28;20034;-81
2023/02/26 11:03:46;;;;;;;3.83;1.70;;;5.20;45.30;;;;;;4976063;28;20030;-81
2023/02/26 11:06:30;;;;;;;5.43;2.05;;;5.50;46.70;;;;;;4979409;28;20038;-82
2023/02/26 11:08:58;;;;;;;3.33;1.75;;;5.20;43.40;;;;;;4985753;28;20023;-81
2023/02/26 11:11:39;;;;;;;5.35;1.85;;;5.10;44.60;;;;;;4988664;28;20124;-77
2023/02/26 11:14:05;;;;;;;5.30;1.75;;;5.10;45.20;;;;;;4978911;28;20034;-81
2023/02/26 11:16:31;;;;;;;6.82;1.88;;;5.10;42.70;;;;;;4986024;28;22399;-80
2023/02/26 11:18:59;;;;;;;4.07;1.67;;;5.00;43.20;;;;;;4981925;28;20371;-81
2023/02/26 11:21:37;;;;;;;6.13;2.28;;;5.10;41.80;;;;;;4981819;28;20113;-83
2023/02/26 11:24:15;;;;;;;5.95;1.90;;;5.10;42.30;;;;;;4986984;28;20102;-83
2023/02/26 11:26:45;;;;;;;4.22;1.88;;;5.10;42.90;;;;;;4980435;28;20376;-81
2023/02/26 11:29:17;;;;;;;6.22;1.92;;;5.00;43.60;;;;;;4986960;28;20084;-78
2023/02/26 11:31:49;;;;;;;3.40;1.80;;;4.70;44.60;;;;;;4996449;28;20038;-80
2023/02/26 11:34:15;;;;;;;7.25;2.05;;;5.10;44.90;;;;;;5002569;28;20080;-76
2023/02/26 11:36:43;;;;;;;4.75;1.95;;;5.50;44.10;;;;;;4994736;28;20050;-77
2023/02/26 11:39:14;;;;;;;4.90;1.80;;;5.70;43.90;;;;;;4998042;28;20054;-76
2023/02/26 11:41:43;;;;;;;5.93;2.10;;;5.50;44.20;;;;;;4985084;28;20034;-76
2023/02/26 11:44:25;;;;;;;5.05;1.98;;;5.40;42.90;;;;;;5001831;28;20037;-77
2023/02/26 11:46:55;;;;;;;5.15;1.85;;;5.40;43.20;;;;;;4987076;28;20034;-81
2023/02/26 11:49:24;;;;;;;3.53;1.67;;;5.30;43.20;;;;;;4982828;28;20491;-89
2023/02/26 11:52:10;;;;;;;3.63;2.00;;;5.60;42.20;;;;;;4989927;28;20080;-79
2023/02/26 11:54:38;;;;;;;3.67;1.77;;;5.60;41.30;;;;;;5007507;28;20098;-82
2023/02/26 11:57:16;;;;;;;4.22;1.70;;;5.70;42.40;;;;;;4993512;28;20031;-82
2023/02/26 11:59:47;;;;;;;4.82;1.85;;;5.90;42.60;;;;;;4996252;28;20018;-90
2023/02/26 12:02:17;;;;;;;5.57;2.00;;;6.10;41.70;;;;;;4994667;28;20042;-86
2023/02/26 12:04:48;;;;;;;3.45;1.83;;;5.90;40.90;;;;;;4982220;28;20022;-84
2023/02/26 12:07:15;;;;;;;3.58;2.00;;;5.70;39.90;;;;;;4992951;28;20041;-85
2023/02/26 12:09:41;;;;;;;4.82;2.10;;;5.50;40.40;;;;;;4989412;28;20533;-86
2023/02/26 12:12:16;;;;;;;4.50;1.90;;;5.60;41.80;;;;;;4990451;28;20045;-74
2023/02/26 12:14:54;;;;;;;;;;;5.60;40.70;;;;;;4994151;28;20018;-86
2023/02/26 12:17:35;;;;;;;6.15;2.00;;;5.70;41.50;;;;;;4988692;28;19917;-85
2023/02/26 12:20:22;;;;;;;4.45;1.95;;;5.70;40.80;;;;;;4991868;28;20390;-86
2023/02/26 12:23:06;;;;;;;4.80;1.80;;;5.50;40.50;;;;;;4992963;28;20455;-87
2023/02/26 12:25:51;;;;;;;5.10;1.70;;;5.60;40.00;;;;;;4993632;28;20101;-88
2023/02/26 12:28:22;;;;;;;3.43;1.73;;;5.60;41.10;;;;;;5000911;28;20019;-73
2023/02/26 12:30:48;;;;;;;4.30;1.95;;;5.80;39.60;;;;;;5002888;28;20035;-75
2023/02/26 12:33:20;;;;;;;4.53;1.95;;;6.00;39.20;;;;;;5010050;28;20054;-76
2023/02/26 12:36:16;;;;;;;7.20;2.50;;;6.00;39.40;;;;;;4995404;28;20037;-84
2023/02/26 12:39:19;;;;;;;5.45;2.58;;;5.70;41.60;;;;;;4990144;28;20072;-90
2023/02/26 12:41:59;;;;;;;8.60;3.47;;;6.00;43.20;;;;;;4984083;28;20059;-86
2023/02/26 12:44:52;;;;;;;5.63;1.85;;;5.90;41.30;;;;;;4990806;28;20038;-84
2023/02/26 12:47:28;;;;;;;4.35;1.90;;;5.70;41.30;;;;;;4990042;28;20468;-84
2023/02/26 12:50:07;;;;;;;5.60;2.20;;;5.90;40.90;;;;;;4990897;28;20042;-83
2023/02/26 12:53:01;;;;;;;4.38;1.88;;;6.00;39.60;;;;;;4984979;28;20043;-85
2023/02/26 12:55:38;;;;;;;7.78;2.65;;;6.20;40.60;;;;;;4980555;28;20339;-83
2023/02/26 12:58:34;;;;;;;3.53;2.00;;;6.10;41.10;;;;;;4983931;28;20066;-81
2023/02/26 13:01:08;;;;;;;7.90;2.40;;;5.80;41.40;;;;;;4985858;28;20038;-81
2023/02/26 13:03:46;;;;;;;5.10;2.55;;;6.00;41.00;;;;;;4981405;28;20054;-84
2023/02/26 13:06:35;;;;;;;4.75;1.90;;;6.20;41.20;;;;;;4982478;28;20135;-83
2023/02/26 13:09:30;;;;;;;4.80;2.42;;;6.20;38.90;;;;;;4986335;28;20037;-85
2023/02/26 13:12:11;;;;;;;5.18;2.20;;;6.10;39.60;;;;;;4981233;28;20538;-84
2023/02/26 13:15:21;;;;;;;4.80;1.92;;;5.80;41.30;;;;;;4984144;28;20030;-81
2023/02/26 13:18:25;;;;;;;4.40;1.95;;;6.00;41.00;;;;;;4982643;28;20057;-88
2023/02/26 13:20:59;;;;;;;3.28;1.63;;;5.90;40.40;;;;;;4974389;28;20169;-82
2023/02/26 13:23:32;;;;;;;4.70;1.60;;;5.80;41.90;;;;;;4983037;28;20026;-82